createdAt,value
2023-08-29T00:01:25.199Z,1.33
2023-08-29T00:03:52.777Z,2.03
2023-08-29T00:06:20.043Z,1.10
2023-08-29T00:08:47.153Z,1.33
2023-08-29T00:11:14.278Z,1.40
2023-08-29T00:13:41.602Z,1.23
2023-08-29T00:16:10.092Z,1.00
2023-08-29T00:18:37.576Z,1.70
2023-08-29T00:21:04.613Z,1.77
2023-08-29T00:23:31.852Z,1.30
2023-08-29T00:25:58.899Z,1.20
2023-08-29T00:28:25.956Z,2.10
2023-08-29T00:30:55.896Z,1.50
2023-08-29T00:33:24.512Z,2.03
2023-08-29T00:35:51.586Z,1.02
2023-08-29T00:38:18.802Z,1.70
2023-08-29T00:40:45.910Z,1.08
2023-08-29T00:43:13.179Z,1.20
2023-08-29T00:45:41.187Z,1.33
2023-08-29T00:48:09.733Z,1.67
2023-08-29T00:50:39.636Z,1.40
2023-08-29T00:53:07.817Z,1.48
2023-08-29T00:55:36.130Z,1.75
2023-08-29T00:58:04.103Z,0.82
2023-08-29T01:00:32.908Z,2.47
2023-08-29T01:03:01.375Z,1.13
2023-08-29T01:05:32.761Z,1.38
2023-08-29T01:08:02.605Z,1.42
2023-08-29T01:10:38.015Z,0.80
2023-08-29T01:15:36.675Z,2.45
2023-08-29T01:18:06.804Z,0.80
2023-08-29T01:20:36.476Z,2.22
2023-08-29T01:23:15.560Z,1.40
2023-08-29T01:25:49.900Z,3.03
2023-08-29T01:28:20.457Z,2.25
2023-08-29T01:30:48.397Z,1.10
2023-08-29T01:33:15.846Z,1.70
2023-08-29T01:35:50.656Z,1.05
2023-08-29T01:38:20.986Z,1.30
2023-08-29T01:40:48.370Z,0.77
2023-08-29T01:43:18.436Z,1.05
2023-08-29T01:45:47.052Z,1.38
2023-08-29T01:48:14.661Z,0.80
2023-08-29T01:50:46.691Z,1.17
2023-08-29T01:53:13.914Z,4.07
2023-08-29T01:55:41.687Z,1.35
2023-08-29T01:58:10.155Z,1.60
2023-08-29T02:00:37.792Z,1.73
2023-08-29T02:03:06.525Z,0.70
2023-08-29T02:05:33.776Z,2.85
2023-08-29T02:08:01.001Z,1.10
2023-08-29T02:10:28.080Z,1.70
2023-08-29T02:12:55.081Z,1.23
2023-08-29T02:15:25.012Z,1.35
2023-08-29T02:17:54.419Z,1.95
2023-08-29T02:20:24.983Z,1.23
2023-08-29T02:22:52.088Z,1.10
2023-08-29T02:25:19.194Z,1.10
2023-08-29T02:27:48.202Z,1.67
2023-08-29T02:30:15.552Z,2.33
2023-08-29T02:32:43.078Z,1.52
2023-08-29T02:35:11.301Z,2.10
2023-08-29T02:37:40.194Z,1.20
2023-08-29T02:40:09.529Z,1.45
2023-08-29T02:42:36.860Z,1.48
2023-08-29T02:45:04.591Z,1.02
2023-08-29T02:47:33.083Z,1.15
2023-08-29T02:50:00.160Z,1.13
2023-08-29T02:52:27.490Z,1.27
2023-08-29T02:54:56.357Z,1.25
2023-08-29T02:57:23.561Z,1.05
2023-08-29T02:59:56.532Z,1.30
2023-08-29T03:02:27.746Z,1.60
2023-08-29T03:04:55.158Z,2.05
2023-08-29T03:07:23.337Z,1.08
2023-08-29T03:09:50.848Z,1.52
2023-08-29T03:12:19.277Z,0.90
2023-08-29T03:14:46.315Z,1.27
2023-08-29T03:17:13.396Z,1.30
2023-08-29T03:19:40.538Z,1.20
2023-08-29T03:22:07.613Z,1.00
2023-08-29T03:24:34.682Z,1.88
2023-08-29T03:27:01.819Z,1.77
2023-08-29T03:29:30.452Z,1.77
2023-08-29T03:31:57.693Z,1.13
2023-08-29T03:34:27.638Z,1.92
2023-08-29T03:36:54.678Z,1.10
2023-08-29T03:39:22.044Z,1.73
2023-08-29T03:41:49.213Z,2.13
2023-08-29T03:44:16.287Z,1.15
2023-08-29T03:46:48.416Z,2.38
2023-08-29T03:49:15.548Z,1.15
2023-08-29T03:51:42.570Z,1.58
2023-08-29T03:54:10.336Z,1.30
2023-08-29T03:56:40.347Z,1.65
2023-08-29T03:59:08.014Z,0.90
2023-08-29T04:01:35.206Z,1.45
2023-08-29T04:04:04.923Z,0.90
2023-08-29T04:06:35.656Z,1.77
2023-08-29T04:09:04.939Z,1.52
2023-08-29T04:11:32.160Z,1.27
2023-08-29T04:13:59.488Z,3.45
2023-08-29T04:16:26.797Z,1.45
2023-08-29T04:18:54.566Z,1.45
2023-08-29T04:21:23.170Z,3.70
2023-08-29T04:23:51.748Z,1.77
2023-08-29T04:26:19.264Z,2.05
2023-08-29T04:28:46.397Z,1.90
2023-08-29T04:31:15.012Z,1.80
2023-08-29T04:33:43.710Z,1.10
2023-08-29T04:36:10.823Z,3.22
2023-08-29T04:38:39.750Z,2.17
2023-08-29T04:41:06.709Z,2.35
2023-08-29T04:43:33.795Z,2.92
2023-08-29T04:46:00.941Z,2.20
2023-08-29T04:48:29.310Z,2.22
2023-08-29T04:50:56.529Z,2.03
2023-08-29T04:53:23.578Z,1.35
2023-08-29T04:56:00.781Z,1.20
2023-08-29T04:58:28.034Z,1.10
2023-08-29T05:00:55.923Z,1.73
2023-08-29T05:03:23.459Z,1.73
2023-08-29T05:05:52.925Z,1.20
2023-08-29T05:08:20.397Z,2.20
2023-08-29T05:10:47.597Z,1.58
2023-08-29T05:13:16.382Z,1.70
2023-08-29T05:15:44.427Z,1.80
2023-08-29T05:18:11.559Z,1.30
2023-08-29T05:20:39.106Z,2.03
2023-08-29T05:23:06.324Z,2.75
2023-08-29T05:25:33.923Z,1.33
2023-08-29T05:28:01.034Z,1.67
2023-08-29T05:30:31.628Z,1.63
2023-08-29T05:32:59.473Z,2.72
2023-08-29T05:35:26.563Z,1.20
2023-08-29T05:37:53.576Z,1.98
2023-08-29T05:40:20.607Z,2.50
2023-08-29T05:42:47.648Z,1.67
2023-08-29T05:45:15.634Z,2.00
2023-08-29T05:47:44.052Z,2.80
2023-08-29T05:50:11.188Z,2.40
2023-08-29T05:52:38.756Z,2.22
2023-08-29T05:55:07.272Z,1.77
2023-08-29T05:57:34.409Z,1.60
2023-08-29T06:00:01.558Z,1.25
2023-08-29T06:02:29.777Z,3.20
2023-08-29T06:04:58.356Z,1.30
2023-08-29T06:07:26.081Z,2.35
2023-08-29T06:09:53.161Z,1.30
2023-08-29T06:12:20.234Z,1.70
2023-08-29T06:14:47.664Z,2.65
2023-08-29T06:17:15.346Z,2.58
2023-08-29T06:19:42.560Z,1.63
2023-08-29T06:22:13.770Z,3.45
2023-08-29T06:24:45.203Z,1.63
2023-08-29T06:27:12.748Z,2.03
2023-08-29T06:29:40.040Z,2.58
2023-08-29T06:32:13.453Z,1.88
2023-08-29T06:34:41.037Z,3.08
2023-08-29T06:37:08.299Z,2.67
2023-08-29T06:39:36.756Z,3.03
2023-08-29T06:42:04.085Z,1.80
2023-08-29T06:44:31.400Z,3.00
2023-08-29T06:46:58.638Z,2.42
2023-08-29T06:49:25.738Z,2.58
2023-08-29T06:51:52.860Z,1.75
2023-08-29T06:54:19.945Z,2.70
2023-08-29T06:56:50.298Z,1.77
2023-08-29T06:59:17.398Z,2.63
2023-08-29T07:01:44.616Z,3.30
2023-08-29T07:04:12.249Z,2.35
2023-08-29T07:06:40.346Z,2.80
2023-08-29T07:09:08.402Z,2.67
2023-08-29T07:11:35.499Z,1.95
2023-08-29T07:14:03.983Z,2.05
2023-08-29T07:16:32.855Z,2.65
2023-08-29T07:19:03.325Z,3.60
2023-08-29T07:21:30.478Z,1.92
2023-08-29T07:23:57.678Z,1.42
2023-08-29T07:26:27.264Z,2.17
2023-08-29T07:28:55.177Z,1.92
2023-08-29T07:31:24.490Z,2.72
2023-08-29T07:33:52.308Z,2.03
2023-08-29T07:36:19.409Z,2.10
2023-08-29T07:38:47.182Z,4.47
2023-08-29T07:41:15.573Z,2.85
2023-08-29T07:43:42.719Z,2.20
2023-08-29T07:46:10.192Z,1.48
2023-08-29T07:48:39.007Z,4.32
2023-08-29T07:51:06.151Z,2.30
2023-08-29T07:53:33.404Z,2.13
2023-08-29T07:56:00.558Z,2.45
2023-08-29T07:58:27.661Z,3.67
2023-08-29T08:00:55.056Z,2.33
2023-08-29T08:03:24.413Z,2.58
2023-08-29T08:05:53.038Z,1.42
2023-08-29T08:08:20.210Z,3.05
2023-08-29T08:10:47.393Z,2.13
2023-08-29T08:13:14.703Z,2.72
2023-08-29T08:15:41.765Z,2.42
2023-08-29T08:18:09.490Z,1.73
2023-08-29T08:20:37.034Z,3.20
2023-08-29T08:23:07.281Z,5.18
2023-08-29T08:25:34.678Z,2.92
2023-08-29T08:28:01.915Z,2.25
2023-08-29T08:30:30.108Z,1.80
2023-08-29T08:32:57.262Z,1.30
2023-08-29T08:35:27.394Z,1.88
2023-08-29T08:37:55.080Z,2.70
2023-08-29T08:40:23.890Z,2.20
2023-08-29T08:42:51.297Z,1.10
2023-08-29T08:45:20.188Z,4.47
2023-08-29T08:47:47.429Z,4.03
2023-08-29T08:50:14.988Z,3.38
2023-08-29T08:52:44.365Z,3.33
2023-08-29T08:55:11.676Z,2.75
2023-08-29T08:57:40.572Z,1.88
2023-08-29T09:00:09.306Z,3.53
2023-08-29T09:02:38.851Z,4.45
2023-08-29T09:05:09.887Z,2.40
2023-08-29T09:07:39.246Z,1.80
2023-08-29T09:10:08.944Z,2.35
2023-08-29T09:12:36.411Z,2.92
2023-08-29T09:15:08.823Z,4.25
2023-08-29T09:17:36.089Z,2.33
2023-08-29T09:20:07.572Z,1.75
2023-08-29T09:22:34.687Z,1.83
2023-08-29T09:25:04.382Z,1.15
2023-08-29T09:27:38.928Z,2.42
2023-08-29T09:30:12.980Z,1.20
2023-08-29T09:32:43.094Z,2.22
2023-08-29T09:35:13.534Z,2.13
2023-08-29T09:37:42.577Z,1.58
2023-08-29T09:40:22.313Z,2.45
2023-08-29T09:42:55.255Z,1.92
2023-08-29T09:45:24.281Z,1.92
2023-08-29T09:47:54.149Z,2.05
2023-08-29T09:50:22.645Z,1.70
2023-08-29T09:52:54.784Z,1.92
2023-08-29T09:55:23.742Z,1.90
2023-08-29T09:57:53.527Z,2.80
2023-08-29T10:00:23.329Z,1.45
2023-08-29T10:02:56.803Z,2.03
2023-08-29T10:05:27.403Z,2.05
2023-08-29T10:07:58.296Z,3.58
2023-08-29T10:10:26.470Z,2.15
2023-08-29T10:12:54.909Z,1.15
2023-08-29T10:15:24.572Z,2.22
2023-08-29T10:17:52.381Z,1.42
2023-08-29T10:20:21.026Z,1.90
2023-08-29T10:22:49.967Z,1.45
2023-08-29T10:25:19.833Z,0.98
2023-08-29T10:27:47.342Z,1.35
2023-08-29T10:30:15.802Z,2.25
2023-08-29T10:32:45.824Z,3.05
2023-08-29T10:35:19.658Z,4.35
2023-08-29T10:37:50.286Z,3.95
2023-08-29T10:40:18.528Z,4.75
2023-08-29T10:42:57.985Z,1.13
2023-08-29T10:45:50.080Z,1.30
2023-08-29T10:48:19.547Z,4.40
2023-08-29T10:50:48.318Z,2.30
2023-08-29T10:53:19.939Z,2.00
2023-08-29T10:56:01.476Z,9.27
2023-08-29T10:58:35.441Z,5.05
2023-08-29T11:01:03.244Z,4.25
2023-08-29T11:03:51.719Z,6.88
2023-08-29T11:06:19.878Z,2.28
2023-08-29T11:08:47.389Z,2.47
2023-08-29T11:11:20.129Z,6.60
2023-08-29T11:14:01.245Z,2.58
2023-08-29T11:16:29.297Z,6.93
2023-08-29T11:19:05.789Z,4.93
2023-08-29T11:21:33.305Z,6.30
2023-08-29T11:24:15.248Z,3.72
2023-08-29T11:26:47.209Z,2.70
2023-08-29T11:29:14.262Z,4.20
2023-08-29T11:31:44.042Z,2.28
2023-08-29T11:34:18.589Z,4.22
2023-08-29T11:36:49.128Z,2.20
2023-08-29T11:39:18.836Z,4.13
2023-08-29T11:41:48.708Z,3.72
2023-08-29T11:44:57.978Z,11.93
2023-08-29T11:47:22.247Z,5.93
2023-08-29T11:49:51.743Z,6.60
2023-08-29T11:52:19.059Z,10.82
2023-08-29T11:54:48.023Z,6.63
2023-08-29T11:57:16.759Z,5.70
2023-08-29T11:59:45.183Z,5.88
2023-08-29T12:02:13.907Z,9.48
2023-08-29T12:04:43.301Z,4.85
2023-08-29T12:07:13.202Z,7.03
2023-08-29T12:14:57.741Z,3.67
2023-08-29T12:17:34.831Z,6.78
2023-08-29T12:20:02.145Z,5.93
2023-08-29T12:22:37.702Z,6.18
2023-08-29T12:25:05.944Z,3.58
2023-08-29T12:27:32.908Z,3.72
2023-08-29T12:30:00.428Z,5.63
2023-08-29T12:32:28.250Z,5.13
2023-08-29T12:34:56.824Z,4.53
2023-08-29T12:37:24.373Z,5.03
2023-08-29T12:39:53.366Z,3.80
2023-08-29T12:42:20.625Z,8.80
2023-08-29T12:44:49.315Z,2.55
2023-08-29T12:47:16.374Z,4.15
2023-08-29T12:49:43.828Z,3.05
2023-08-29T12:52:12.033Z,3.22
2023-08-29T12:54:42.444Z,4.43
2023-08-29T12:57:11.247Z,2.95
2023-08-29T12:59:38.438Z,3.17
2023-08-29T13:02:06.529Z,12.18
2023-08-29T13:04:33.531Z,4.55
2023-08-29T13:07:00.781Z,6.95
2023-08-29T13:09:37.509Z,4.80
2023-08-29T13:12:07.801Z,4.00
2023-08-29T13:14:39.144Z,8.02
2023-08-29T13:17:08.066Z,3.17
2023-08-29T13:19:36.344Z,3.67
2023-08-29T13:22:04.391Z,7.28
2023-08-29T13:24:32.342Z,5.80
2023-08-29T13:26:59.510Z,4.68
2023-08-29T13:29:27.812Z,2.75
2023-08-29T13:31:57.354Z,3.97
2023-08-29T13:34:24.447Z,6.13
2023-08-29T13:36:51.620Z,5.72
2023-08-29T13:39:20.194Z,4.03
2023-08-29T13:41:47.298Z,4.30
2023-08-29T13:44:14.355Z,4.32
2023-08-29T13:46:45.115Z,3.47
2023-08-29T13:49:14.813Z,7.50
2023-08-29T13:51:41.934Z,3.33
2023-08-29T13:54:09.140Z,4.07
2023-08-29T13:56:36.752Z,5.50
2023-08-29T13:59:04.589Z,4.88
2023-08-29T14:01:31.853Z,4.18
2023-08-29T14:03:59.211Z,2.92
2023-08-29T14:06:28.532Z,5.60
2023-08-29T14:08:55.608Z,2.95
2023-08-29T14:11:22.645Z,5.47
2023-08-29T14:13:50.658Z,4.72
2023-08-29T14:16:17.791Z,3.53
2023-08-29T14:18:47.031Z,3.35
2023-08-29T14:21:14.100Z,2.58
2023-08-29T14:23:42.459Z,1.95
2023-08-29T14:26:09.987Z,3.40
2023-08-29T14:28:37.021Z,2.92
2023-08-29T14:31:04.648Z,3.17
2023-08-29T14:33:32.011Z,15.18
2023-08-29T14:36:00.004Z,16.58
2023-08-29T14:38:27.043Z,38.10
2023-08-29T14:40:55.499Z,29.17
2023-08-29T14:43:22.579Z,29.35
2023-08-29T14:45:49.684Z,28.13
2023-08-29T14:48:16.681Z,30.90
2023-08-29T14:50:46.706Z,25.45
2023-08-29T14:53:13.842Z,29.55
2023-08-29T14:55:40.903Z,22.55
2023-08-29T14:58:09.791Z,18.50
2023-08-29T15:00:42.250Z,16.08
2023-08-29T15:03:10.598Z,13.65
2023-08-29T15:05:37.843Z,16.55
2023-08-29T15:08:05.858Z,15.38
2023-08-29T15:10:33.409Z,15.95
2023-08-29T15:13:01.141Z,12.13
2023-08-29T15:15:30.405Z,15.63
2023-08-29T15:17:57.530Z,14.43
2023-08-29T15:20:26.310Z,14.63
2023-08-29T15:22:53.636Z,10.70
2023-08-29T15:25:20.851Z,11.50
2023-08-29T15:27:48.006Z,14.20
2023-08-29T15:30:15.085Z,11.30
2023-08-29T15:32:43.716Z,12.20
2023-08-29T15:35:11.687Z,16.55
2023-08-29T15:37:38.736Z,11.40
2023-08-29T15:40:08.371Z,12.30
2023-08-29T15:42:35.492Z,6.88
2023-08-29T15:45:02.758Z,9.23
2023-08-29T15:47:29.944Z,10.43
2023-08-29T15:49:58.611Z,5.65
2023-08-29T15:52:25.596Z,5.45
2023-08-29T15:54:53.313Z,7.18
2023-08-29T15:57:20.444Z,8.50
2023-08-29T15:59:48.011Z,8.75
2023-08-29T16:02:15.308Z,7.32
2023-08-29T16:04:42.348Z,8.55
2023-08-29T16:07:10.762Z,5.13
2023-08-29T16:09:37.914Z,8.27
2023-08-29T16:12:06.154Z,8.20
2023-08-29T16:14:33.257Z,6.80
2023-08-29T16:17:01.271Z,5.38
2023-08-29T16:19:29.050Z,8.00
2023-08-29T16:21:56.217Z,6.15
2023-08-29T16:24:24.719Z,7.03
2023-08-29T16:26:51.733Z,4.95
2023-08-29T16:29:18.822Z,4.63
2023-08-29T16:31:46.293Z,10.90
2023-08-29T16:34:13.332Z,12.02
2023-08-29T16:36:40.483Z,8.25
2023-08-29T16:39:10.186Z,5.88
2023-08-29T16:41:39.293Z,10.00
2023-08-29T16:44:06.455Z,7.47
2023-08-29T16:46:36.098Z,7.50
2023-08-29T16:49:05.241Z,5.43
2023-08-29T16:51:32.373Z,7.88
2023-08-29T16:53:59.360Z,8.45
2023-08-29T16:56:26.539Z,6.93
2023-08-29T16:58:54.876Z,6.43
2023-08-29T17:01:22.013Z,7.18
2023-08-29T17:03:49.215Z,6.53
2023-08-29T17:06:16.475Z,5.15
2023-08-29T17:08:43.520Z,8.10
2023-08-29T17:11:10.636Z,6.80
2023-08-29T17:13:37.718Z,4.35
2023-08-29T17:16:06.508Z,7.13
2023-08-29T17:18:33.584Z,4.43
2023-08-29T17:21:00.596Z,5.38
2023-08-29T17:23:28.004Z,5.10
2023-08-29T17:25:56.966Z,2.40
2023-08-29T17:28:24.045Z,2.97
2023-08-29T17:30:51.352Z,3.65
2023-08-29T17:33:20.815Z,4.97
2023-08-29T17:35:48.304Z,5.47
2023-08-29T17:38:15.353Z,5.03
2023-08-29T17:40:44.908Z,3.72
2023-08-29T17:43:11.971Z,3.63
2023-08-29T17:45:45.609Z,6.25
2023-08-29T17:48:12.789Z,5.80
2023-08-29T17:50:41.397Z,3.15
2023-08-29T17:53:08.469Z,3.58
2023-08-29T17:55:36.436Z,3.35
2023-08-29T17:58:03.947Z,3.15
2023-08-29T18:00:31.176Z,3.72
2023-08-29T18:02:58.225Z,5.63
2023-08-29T18:05:25.680Z,3.15
2023-08-29T18:07:54.325Z,3.85
2023-08-29T18:10:21.394Z,3.58
2023-08-29T18:12:49.020Z,4.18
2023-08-29T18:15:18.389Z,3.88
2023-08-29T18:17:45.473Z,4.75
2023-08-29T18:20:12.668Z,2.95
2023-08-29T18:22:39.745Z,6.82
2023-08-29T18:25:09.159Z,2.30
2023-08-29T18:30:09.172Z,2.78
2023-08-29T18:32:36.221Z,2.78
2023-08-29T18:35:03.588Z,2.45
2023-08-29T18:37:30.593Z,2.97
2023-08-29T18:39:57.921Z,3.10
2023-08-29T18:42:26.488Z,5.45
2023-08-29T18:44:53.523Z,2.92
2023-08-29T18:47:20.503Z,4.18
2023-08-29T18:49:47.580Z,2.97
2023-08-29T18:52:14.905Z,4.20
2023-08-29T18:54:42.141Z,4.90
2023-08-29T18:57:09.855Z,3.67
2023-08-29T18:59:38.282Z,4.07
2023-08-29T19:02:05.680Z,3.03
2023-08-29T19:04:34.076Z,7.22
2023-08-29T19:07:01.071Z,3.97
2023-08-29T19:09:28.133Z,2.85
2023-08-29T19:11:55.245Z,5.22
2023-08-29T19:14:23.176Z,3.42
2023-08-29T19:16:51.599Z,3.55
2023-08-29T19:19:18.661Z,2.60
2023-08-29T19:21:45.709Z,4.40
2023-08-29T19:24:13.875Z,4.88
2023-08-29T19:26:40.999Z,6.88
2023-08-29T19:29:08.047Z,3.97
2023-08-29T19:31:35.043Z,2.75
2023-08-29T19:34:03.484Z,2.50
2023-08-29T19:36:30.504Z,4.35
2023-08-29T19:39:08.483Z,3.75
2023-08-29T19:41:42.780Z,4.65
2023-08-29T19:44:10.083Z,2.67
2023-08-29T19:46:38.435Z,4.60
2023-08-29T19:49:06.882Z,2.78
2023-08-29T19:51:33.981Z,3.60
2023-08-29T19:54:01.051Z,3.72
2023-08-29T19:56:28.108Z,2.60
2023-08-29T19:58:55.146Z,4.30
2023-08-29T20:01:22.110Z,2.70
2023-08-29T20:03:49.278Z,3.22
2023-08-29T20:06:17.824Z,2.45
2023-08-29T20:08:45.066Z,4.63
2023-08-29T20:11:12.219Z,3.45
2023-08-29T20:13:39.242Z,3.25
2023-08-29T20:16:06.518Z,4.65
2023-08-29T20:18:33.737Z,2.22
2023-08-29T20:21:02.255Z,2.78
2023-08-29T20:23:30.725Z,4.95
2023-08-29T20:25:57.745Z,4.72
2023-08-29T20:28:24.853Z,2.53
2023-08-29T20:30:53.979Z,2.97
2023-08-29T20:33:22.524Z,3.83
2023-08-29T20:35:49.665Z,3.22
2023-08-29T20:38:16.749Z,5.18
2023-08-29T20:40:45.161Z,4.63
2023-08-29T20:43:12.300Z,2.95
2023-08-29T20:45:41.127Z,2.58
2023-08-29T20:48:08.421Z,4.05
2023-08-29T20:50:36.141Z,3.35
2023-08-29T20:53:03.607Z,3.33
2023-08-29T20:55:31.216Z,3.08
2023-08-29T20:58:00.807Z,6.20
2023-08-29T21:00:30.156Z,2.70
2023-08-29T21:02:57.233Z,3.05
2023-08-29T21:05:24.691Z,2.75
2023-08-29T21:07:53.556Z,3.17
2023-08-29T21:10:20.554Z,3.42
2023-08-29T21:12:47.592Z,3.05
2023-08-29T21:15:16.172Z,2.80
2023-08-29T21:17:44.831Z,3.97
2023-08-29T21:20:12.480Z,3.80
2023-08-29T21:22:39.603Z,3.45
2023-08-29T21:25:07.028Z,3.33
2023-08-29T21:27:34.057Z,5.53
2023-08-29T21:30:01.156Z,3.15
2023-08-29T21:32:29.614Z,3.50
2023-08-29T21:34:56.697Z,3.30
2023-08-29T21:37:23.734Z,3.45
2023-08-29T21:39:50.923Z,4.82
2023-08-29T21:42:17.998Z,2.85
2023-08-29T21:44:45.054Z,2.70
2023-08-29T21:47:12.180Z,3.17
2023-08-29T21:49:40.542Z,3.78
2023-08-29T21:52:07.619Z,4.55
2023-08-29T21:54:34.632Z,2.67
2023-08-29T21:57:01.864Z,2.63
2023-08-29T21:59:28.932Z,3.22
2023-08-29T22:01:56.167Z,2.85
2023-08-29T22:04:24.384Z,2.30
2023-08-29T22:06:52.774Z,3.80
2023-08-29T22:09:19.885Z,1.98
2023-08-29T22:11:47.419Z,3.40
2023-08-29T22:14:15.632Z,3.20
2023-08-29T22:16:42.974Z,3.42
2023-08-29T22:19:11.411Z,2.17
2023-08-29T22:21:38.643Z,3.08
2023-08-29T22:24:08.104Z,4.45
2023-08-29T22:26:35.193Z,4.03
2023-08-29T22:29:02.273Z,4.68
2023-08-29T22:31:29.395Z,2.53
2023-08-29T22:33:56.429Z,2.47
2023-08-29T22:36:24.592Z,3.92
2023-08-29T22:38:51.752Z,3.28
2023-08-29T22:41:33.486Z,2.83
2023-08-29T22:44:05.144Z,2.78
2023-08-29T22:46:32.198Z,2.35
2023-08-29T22:48:59.271Z,3.08
2023-08-29T22:51:26.326Z,1.92
2023-08-29T22:53:55.041Z,3.22
2023-08-29T22:56:25.669Z,2.03
2023-08-29T22:58:52.897Z,3.65
2023-08-29T23:01:20.583Z,3.92
2023-08-29T23:03:47.756Z,2.33
2023-08-29T23:06:18.141Z,3.17
2023-08-29T23:08:45.229Z,3.05
2023-08-29T23:11:13.299Z,3.92
2023-08-29T23:13:42.036Z,3.42
2023-08-29T23:16:09.292Z,3.10
2023-08-29T23:18:36.436Z,1.88
2023-08-29T23:21:04.747Z,2.47
2023-08-29T23:23:32.212Z,1.70
2023-08-29T23:25:59.247Z,2.42
2023-08-29T23:28:26.932Z,2.25
2023-08-29T23:30:55.823Z,2.30
2023-08-29T23:33:25.731Z,3.17
2023-08-29T23:35:52.860Z,3.05
2023-08-29T23:38:20.885Z,3.33
2023-08-29T23:40:48.510Z,3.20
2023-08-29T23:43:16.735Z,2.08
2023-08-29T23:45:43.966Z,2.17
2023-08-29T23:48:12.788Z,2.42
2023-08-29T23:50:39.978Z,4.07
2023-08-29T23:53:07.026Z,3.92
2023-08-29T23:55:34.175Z,3.67
2023-08-29T23:58:02.213Z,2.70
